Time;durP1;ratioP1;P1;durP2;ratioP2;P2;SDS_P1;SDS_P2;PMS_P1;PMS_P2;Temp;Humidity;BMP_temperature;BMP_pressure;BME280_temperature;BME280_humidity;BME280_pressure;Samples;Min_cycle;Max_cycle;Signal;HPM_P1;HPM_P2
2023/06/03 00:01:57;;;;;;;;;;;;;;;21.97;88.70;99322.00;4990543;28;20023;-41
2023/06/03 00:04:22;;;;;;;;;;;;;;;22.04;88.62;99327.63;4990396;28;19914;-41
2023/06/03 00:06:47;;;;;;;;;;;;;;;21.98;87.55;99323.66;4990281;28;19924;-41
2023/06/03 00:09:13;;;;;;;;;;;;;;;21.97;86.96;99331.66;4995849;28;19922;-41
2023/06/03 00:11:38;;;;;;;;;;;;;;;21.46;87.40;99333.56;4990439;28;19929;-41
2023/06/03 00:14:04;;;;;;;;;;;;;;;21.17;89.57;99353.09;4988492;28;20586;-41
2023/06/03 00:16:32;;;;;;;;;;;;;;;19.60;96.59;99400.88;4985827;28;19926;-41
2023/06/03 00:18:57;;;;;;;;;;;;;;;21.01;91.72;99353.31;4986369;28;19925;-41
2023/06/03 00:21:24;;;;;;;;;;;;;;;19.87;92.91;99380.97;4994365;28;19977;-41
2023/06/03 00:23:49;;;;;;;;;;;;;;;19.68;92.57;99384.72;4987553;28;20625;-41
2023/06/03 00:26:14;;;;;;;;;;;;;;;18.72;95.97;99402.72;4996351;28;19918;-41
2023/06/03 00:28:40;;;;;;;;;;;;;;;18.43;97.79;99419.25;4989793;28;20290;-40
2023/06/03 00:31:05;;;;;;;;;;;;;;;17.90;100.00;99439.59;4989355;28;19921;-40
2023/06/03 00:33:31;;;;;;;;;;;;;;;18.33;99.61;99404.13;5000897;28;19979;-41
2023/06/03 00:35:56;;;;;;;;;;;;;;;18.11;100.00;99421.91;4986291;28;20012;-41
2023/06/03 00:38:21;;;;;;;;;;;;;;;18.23;97.58;99395.16;4995313;28;19924;-41
2023/06/03 00:40:46;;;;;;;;;;;;;;;18.19;99.94;99414.50;4989471;28;19925;-41
2023/06/03 00:43:12;;;;;;;;;;;;;;;17.26;100.00;99444.69;4982607;28;19965;-40
2023/06/03 00:45:37;;;;;;;;;;;;;;;17.19;100.00;99424.28;4984979;28;20370;-40
2023/06/03 00:48:02;;;;;;;;;;;;;;;17.65;100.00;99419.22;4988634;28;19918;-40
2023/06/03 00:50:27;;;;;;;;;;;;;;;17.49;100.00;99435.69;4986962;28;19937;-41
2023/06/03 00:52:52;;;;;;;;;;;;;;;18.75;100.00;99402.56;4986836;28;20423;-41
2023/06/03 00:55:18;;;;;;;;;;;;;;;17.98;100.00;99398.31;4982355;28;20640;-41
2023/06/03 00:57:43;;;;;;;;;;;;;;;17.95;100.00;99396.72;4993998;28;19917;-41
2023/06/03 01:00:08;;;;;;;;;;;;;;;18.26;97.91;99368.06;4966335;28;19936;-41
2023/06/03 01:02:36;;;;;;;;;;;;;;;19.80;94.07;99330.88;4988757;28;19969;-41
2023/06/03 01:05:03;;;;;;;;;;;;;;;18.85;92.96;99352.47;4984343;28;19924;-40
2023/06/03 01:07:46;;;;;;;;;;;;;;;19.43;91.76;99326.19;4995043;28;19996;-40
2023/06/03 01:10:24;;;;;;;;;;;;;;;17.76;95.06;99383.00;4997288;28;19917;-40
2023/06/03 01:12:50;;;;;;;;;;;;;;;18.04;93.75;99360.63;4991373;28;19918;-40
2023/06/03 01:15:20;;;;;;;;;;;;;;;18.46;93.01;99351.28;4999344;28;20110;-41
2023/06/03 01:17:47;;;;;;;;;;;;;;;18.76;90.48;99335.56;4983637;28;19992;-41
2023/06/03 01:20:13;;;;;;;;;;;;;;;18.58;93.17;99355.75;4964278;28;20275;-41
2023/06/03 01:22:42;;;;;;;;;;;;;;;19.66;88.98;99310.84;4997593;28;19921;-41
2023/06/03 01:25:08;;;;;;;;;;;;;;;20.42;88.73;99309.34;4991086;28;20097;-41
2023/06/03 01:27:36;;;;;;;;;;;;;;;19.20;87.05;99325.03;4986821;28;19944;-41
2023/06/03 01:30:01;;;;;;;;;;;;;;;19.44;88.85;99327.03;4979751;28;20435;-42
2023/06/03 01:32:27;;;;;;;;;;;;;;;18.02;89.17;99349.44;4986178;28;19921;-41
2023/06/03 01:34:52;;;;;;;;;;;;;;;19.13;90.28;99342.00;4994899;28;19925;-41
2023/06/03 01:37:17;;;;;;;;;;;;;;;19.84;85.28;99303.59;4983648;28;20442;-41
2023/06/03 01:39:42;;;;;;;;;;;;;;;20.54;83.08;99297.19;4985638;28;19922;-41
2023/06/03 01:42:08;;;;;;;;;;;;;;;20.39;82.25;99305.16;4988141;28;19922;-41
2023/06/03 01:44:33;;;;;;;;;;;;;;;20.22;79.99;99292.38;4983718;28;19925;-42
2023/06/03 01:46:59;;;;;;;;;;;;;;;20.64;80.34;99287.78;4994483;28;20402;-41
2023/06/03 01:49:24;;;;;;;;;;;;;;;20.15;80.22;99302.41;4982964;28;20012;-42
2023/06/03 01:51:49;;;;;;;;;;;;;;;19.37;80.62;99315.31;4967997;28;19933;-41
2023/06/03 01:54:15;;;;;;;;;;;;;;;16.89;88.29;99393.75;4992187;28;19917;-41
2023/06/03 01:56:40;;;;;;;;;;;;;;;18.31;91.16;99374.69;4984079;28;19965;-41
2023/06/03 01:59:07;;;;;;;;;;;;;;;18.29;89.18;99347.88;4984773;28;19923;-41
2023/06/03 02:01:32;;;;;;;;;;;;;;;18.06;90.73;99362.22;4982991;28;19931;-41
2023/06/03 02:03:57;;;;;;;;;;;;;;;16.60;95.67;99410.78;4982984;28;20305;-41
2023/06/03 02:06:22;;;;;;;;;;;;;;;18.42;94.40;99361.03;4996530;28;19923;-41
2023/06/03 02:08:48;;;;;;;;;;;;;;;18.56;90.89;99339.34;4987055;28;20465;-41
2023/06/03 02:11:13;;;;;;;;;;;;;;;18.87;89.80;99333.16;4985479;28;20454;-42
2023/06/03 02:13:38;;;;;;;;;;;;;;;17.54;91.56;99368.56;4982367;28;19917;-41
2023/06/03 02:16:03;;;;;;;;;;;;;;;17.74;92.62;99369.22;4989596;28;19932;-41
2023/06/03 02:18:29;;;;;;;;;;;;;;;18.49;86.95;99320.63;4989953;28;19918;-41
2023/06/03 02:20:54;;;;;;;;;;;;;;;17.56;89.48;99358.06;4991248;28;20429;-41
2023/06/03 02:23:21;;;;;;;;;;;;;;;18.61;91.00;99350.38;4998657;28;20390;-42
2023/06/03 02:25:46;;;;;;;;;;;;;;;18.31;90.72;99353.81;4991752;28;19921;-46
2023/06/03 02:28:12;;;;;;;;;;;;;;;17.89;90.37;99365.78;4990021;28;19917;-41
2023/06/03 02:30:37;;;;;;;;;;;;;;;18.40;89.45;99344.63;4988837;28;19913;-41
2023/06/03 02:33:03;;;;;;;;;;;;;;;18.93;90.17;99339.78;4984760;28;20346;-41
2023/06/03 02:35:28;;;;;;;;;;;;;;;18.44;87.56;99333.09;4987216;28;19929;-41
2023/06/03 02:37:53;;;;;;;;;;;;;;;18.79;89.35;99351.03;4988047;28;20036;-41
2023/06/03 02:40:19;;;;;;;;;;;;;;;18.60;87.29;99336.47;4988619;28;19921;-41
2023/06/03 02:42:44;;;;;;;;;;;;;;;19.06;84.75;99311.97;4988141;28;19929;-41
2023/06/03 02:45:09;;;;;;;;;;;;;;;18.85;84.62;99321.16;4987618;28;19945;-41
2023/06/03 02:47:34;;;;;;;;;;;;;;;19.29;82.75;99307.09;4996455;28;19918;-41
2023/06/03 02:50:00;;;;;;;;;;;;;;;19.40;82.65;99315.09;4993619;28;20192;-41
2023/06/03 02:52:25;;;;;;;;;;;;;;;19.27;82.42;99308.97;4997981;28;19910;-41
2023/06/03 02:54:51;;;;;;;;;;;;;;;19.21;85.28;99337.16;4998718;28;19967;-41
2023/06/03 02:57:16;;;;;;;;;;;;;;;18.46;87.40;99354.72;4987771;28;19914;-41
2023/06/03 02:59:42;;;;;;;;;;;;;;;19.00;86.41;99338.50;4991491;28;19913;-41
2023/06/03 03:02:07;;;;;;;;;;;;;;;19.31;85.52;99318.28;4995639;28;19980;-41
2023/06/03 03:04:36;;;;;;;;;;;;;;;19.06;85.85;99327.66;4992000;28;20468;-41
2023/06/03 03:07:01;;;;;;;;;;;;;;;19.18;86.79;99331.25;4990739;28;19918;-41
2023/06/03 03:09:27;;;;;;;;;;;;;;;18.24;84.08;99318.63;4988362;28;19921;-41
2023/06/03 03:11:52;;;;;;;;;;;;;;;18.93;85.41;99319.75;4994727;28;19928;-41
2023/06/03 03:14:17;;;;;;;;;;;;;;;18.42;85.46;99321.09;4991372;28;19918;-41
2023/06/03 03:16:43;;;;;;;;;;;;;;;18.75;86.65;99329.50;4984542;28;20078;-41
2023/06/03 03:19:09;;;;;;;;;;;;;;;18.51;87.28;99337.00;4997900;28;19926;-41
2023/06/03 03:21:34;;;;;;;;;;;;;;;17.57;87.90;99349.31;4989219;28;19929;-41
2023/06/03 03:23:59;;;;;;;;;;;;;;;18.61;85.54;99306.03;4996560;28;20535;-41
2023/06/03 03:26:25;;;;;;;;;;;;;;;18.88;85.54;99313.13;4975405;28;20008;-41
2023/06/03 03:28:52;;;;;;;;;;;;;;;17.42;90.92;99377.03;4982198;28;19933;-41
2023/06/03 03:31:18;;;;;;;;;;;;;;;16.67;95.51;99394.81;4995444;28;19925;-41
2023/06/03 03:33:43;;;;;;;;;;;;;;;15.63;100.00;99418.84;4988390;28;19918;-41
2023/06/03 03:36:11;;;;;;;;;;;;;;;15.05;100.00;99429.22;4994021;28;19914;-41
2023/06/03 03:38:39;;;;;;;;;;;;;;;15.19;100.00;99413.06;4991302;28;20326;-41
2023/06/03 03:41:05;;;;;;;;;;;;;;;15.33;100.00;99394.31;4989545;28;19925;-41
2023/06/03 03:43:30;;;;;;;;;;;;;;;15.65;100.00;99411.00;4987830;28;19925;-41
2023/06/03 03:45:56;;;;;;;;;;;;;;;15.18;100.00;99388.03;4988799;28;20327;-41
2023/06/03 03:48:21;;;;;;;;;;;;;;;16.26;96.96;99363.06;4996110;28;19964;-41
2023/06/03 03:50:47;;;;;;;;;;;;;;;17.91;90.50;99317.03;4983978;28;19961;-41
2023/06/03 03:53:41;;;;;;;;;;;;;;;17.18;86.89;99326.31;4986727;28;19971;-41
2023/06/03 03:56:07;;;;;;;;;;;;;;;16.99;91.66;99368.94;5001381;28;19926;-41
2023/06/03 03:58:42;;;;;;;;;;;;;;;16.37;91.57;99371.19;4991176;28;19917;-41
2023/06/03 04:01:15;;;;;;;;;;;;;;;17.11;90.38;99352.66;4988396;28;19991;-41
2023/06/03 04:03:41;;;;;;;;;;;;;;;17.21;87.76;99331.34;4989575;28;19925;-41
2023/06/03 04:06:09;;;;;;;;;;;;;;;15.97;92.36;99396.53;4967607;28;19924;-41
2023/06/03 04:08:45;;;;;;;;;;;;;;;15.81;94.12;99399.00;4992642;28;19924;-41
2023/06/03 04:11:49;;;;;;;;;;;;;;;16.59;93.09;99370.94;4985496;28;20248;-41
2023/06/03 04:14:15;;;;;;;;;;;;;;;19.36;86.70;99297.94;5012220;28;19921;-41
2023/06/03 04:16:44;;;;;;;;;;;;;;;17.60;83.46;99327.47;4985530;28;19924;-41
2023/06/03 04:19:12;;;;;;;;;;;;;;;15.46;90.06;99398.88;5002365;28;19926;-41
2023/06/03 04:21:38;;;;;;;;;;;;;;;16.06;93.42;99398.69;4964545;28;20023;-41
2023/06/03 04:24:06;;;;;;;;;;;;;;;15.97;94.76;99403.47;4995309;28;19914;-41
2023/06/03 04:26:31;;;;;;;;;;;;;;;17.34;92.85;99376.63;4995622;28;20060;-41
2023/06/03 04:28:56;;;;;;;;;;;;;;;17.45;89.24;99350.03;4988351;28;20008;-41
2023/06/03 04:31:22;;;;;;;;;;;;;;;18.06;88.57;99346.59;4992395;28;20024;-41
2023/06/03 04:33:48;;;;;;;;;;;;;;;16.98;85.25;99343.81;4988400;28;19972;-41
2023/06/03 04:36:13;;;;;;;;;;;;;;;17.73;85.53;99341.50;4987035;28;20020;-41
2023/06/03 04:38:41;;;;;;;;;;;;;;;17.38;84.80;99344.31;4996439;28;20028;-41
2023/06/03 04:41:06;;;;;;;;;;;;;;;17.02;86.15;99358.34;4985588;28;20238;-41
2023/06/03 04:43:31;;;;;;;;;;;;;;;17.54;86.04;99358.16;4992696;28;20386;-41
2023/06/03 04:45:56;;;;;;;;;;;;;;;17.94;85.37;99342.09;4991715;28;19932;-41
2023/06/03 04:48:22;;;;;;;;;;;;;;;15.97;92.34;99419.06;4987193;28;19921;-41
2023/06/03 04:50:48;;;;;;;;;;;;;;;16.54;94.35;99409.34;4983297;28;19921;-41
2023/06/03 04:53:13;;;;;;;;;;;;;;;16.92;90.67;99367.56;4987190;28;20378;-41
2023/06/03 04:55:44;;;;;;;;;;;;;;;16.34;89.57;99375.72;4998651;28;19991;-41
2023/06/03 04:58:10;;;;;;;;;;;;;;;17.14;89.01;99364.66;4986382;28;19925;-41
2023/06/03 05:00:36;;;;;;;;;;;;;;;16.59;88.71;99373.56;4987988;28;20817;-41
2023/06/03 05:03:03;;;;;;;;;;;;;;;15.87;91.02;99401.31;4994000;28;19914;-41
2023/06/03 05:05:29;;;;;;;;;;;;;;;16.48;92.68;99402.69;4983559;28;20379;-41
2023/06/03 05:07:54;;;;;;;;;;;;;;;17.30;91.89;99382.91;4998120;28;19922;-41
2023/06/03 05:10:20;;;;;;;;;;;;;;;16.49;92.34;99408.75;4988008;28;20265;-41
2023/06/03 05:12:45;;;;;;;;;;;;;;;17.78;90.62;99378.56;4988207;28;20347;-41
2023/06/03 05:15:11;;;;;;;;;;;;;;;16.80;90.71;99395.03;4995162;28;19921;-41
2023/06/03 05:17:37;;;;;;;;;;;;;;;17.58;90.27;99382.25;4980521;28;19975;-41
2023/06/03 05:20:04;;;;;;;;;;;;;;;18.32;89.26;99363.34;4986459;28;20007;-41
2023/06/03 05:22:29;;;;;;;;;;;;;;;16.97;90.75;99396.78;4990012;28;20477;-41
2023/06/03 05:24:54;;;;;;;;;;;;;;;16.61;92.15;99405.50;4988504;28;19933;-41
2023/06/03 05:27:19;;;;;;;;;;;;;;;16.12;92.71;99414.88;4989392;28;19918;-41
2023/06/03 05:29:45;;;;;;;;;;;;;;;17.67;91.66;99383.50;4987075;28;19940;-41
2023/06/03 05:32:11;;;;;;;;;;;;;;;16.48;92.21;99401.84;4990251;28;20318;-41
2023/06/03 05:34:36;;;;;;;;;;;;;;;16.26;92.76;99409.84;4991319;28;19921;-41
2023/06/03 05:37:01;;;;;;;;;;;;;;;16.45;93.01;99409.81;4988268;28;20179;-41
2023/06/03 05:39:27;;;;;;;;;;;;;;;18.44;89.69;99355.75;4993510;28;19921;-41
2023/06/03 05:41:52;;;;;;;;;;;;;;;16.89;90.63;99388.53;4986955;28;19925;-41
2023/06/03 05:44:17;;;;;;;;;;;;;;;19.17;87.92;99340.88;4985368;28;19991;-41
2023/06/03 05:46:42;;;;;;;;;;;;;;;18.29;86.46;99353.09;4989968;28;19921;-41
2023/06/03 05:49:08;;;;;;;;;;;;;;;17.34;86.99;99374.03;4986044;28;19921;-41
2023/06/03 05:51:33;;;;;;;;;;;;;;;18.28;86.83;99356.63;4985730;28;19922;-41
2023/06/03 05:53:58;;;;;;;;;;;;;;;17.19;91.08;99398.25;4981887;28;20371;-41
2023/06/03 05:56:24;;;;;;;;;;;;;;;17.59;90.27;99380.50;4982965;28;19922;-41
2023/06/03 05:58:49;;;;;;;;;;;;;;;19.20;87.53;99330.25;4988967;28;19929;-41
2023/06/03 06:01:14;;;;;;;;;;;;;;;17.82;89.18;99368.84;4979646;28;19983;-41
2023/06/03 06:03:41;;;;;;;;;;;;;;;18.17;89.73;99364.22;4987697;28;19924;-41
2023/06/03 06:06:06;;;;;;;;;;;;;;;18.76;87.58;99341.59;4986538;28;19940;-41
2023/06/03 06:08:31;;;;;;;;;;;;;;;19.33;86.43;99334.72;4984573;28;19914;-41
2023/06/03 06:10:56;;;;;;;;;;;;;;;18.13;87.73;99363.56;4990303;28;20004;-41
2023/06/03 06:13:22;;;;;;;;;;;;;;;18.31;89.99;99369.47;4987840;28;20392;-41
2023/06/03 06:16:03;;;;;;;;;;;;;;;18.33;89.21;99362.41;4987689;28;19922;-41
2023/06/03 06:18:29;;;;;;;;;;;;;;;19.07;89.36;99363.28;4983223;28;20041;-41
2023/06/03 06:20:55;;;;;;;;;;;;;;;18.83;85.90;99346.50;4984379;28;19944;-41
2023/06/03 06:23:20;;;;;;;;;;;;;;;19.22;90.12;99375.38;4988274;28;20499;-41
2023/06/03 06:25:49;;;;;;;;;;;;;;;19.05;87.88;99357.31;4985878;28;19957;-41
2023/06/03 06:28:17;;;;;;;;;;;;;;;19.62;83.03;99315.41;4986534;28;19922;-41
2023/06/03 06:30:43;;;;;;;;;;;;;;;19.10;83.68;99338.75;4983836;28;20015;-41
2023/06/03 06:33:08;;;;;;;;;;;;;;;17.77;87.70;99382.09;4987193;28;19922;-41
2023/06/03 06:35:34;;;;;;;;;;;;;;;17.87;88.49;99393.69;4985648;28;19921;-41
2023/06/03 06:37:59;;;;;;;;;;;;;;;19.02;83.45;99341.81;4986966;28;19969;-41
2023/06/03 06:40:26;;;;;;;;;;;;;;;19.04;89.53;99389.53;4989947;28;19922;-41
2023/06/03 06:42:52;;;;;;;;;;;;;;;18.48;87.65;99372.88;4985498;28;19945;-41
2023/06/03 06:45:24;;;;;;;;;;;;;;;18.85;88.79;99373.34;4986835;28;19922;-41
2023/06/03 06:47:50;;;;;;;;;;;;;;;19.15;87.09;99368.84;4987778;28;19976;-41
2023/06/03 06:50:30;;;;;;;;;;;;;;;18.48;88.37;99383.31;4990548;28;19968;-41
2023/06/03 06:52:55;;;;;;;;;;;;;;;18.88;85.29;99365.31;4989311;28;20562;-41
2023/06/03 06:55:40;;;;;;;;;;;;;;;18.91;86.96;99372.97;4989898;28;19928;-41
2023/06/03 06:58:07;;;;;;;;;;;;;;;18.86;86.26;99362.81;4998349;28;19921;-41
2023/06/03 07:00:32;;;;;;;;;;;;;;;20.37;83.33;99335.81;4989530;28;19921;-41
2023/06/03 07:02:57;;;;;;;;;;;;;;;20.14;81.34;99331.25;4996499;28;19921;-41
2023/06/03 07:05:23;;;;;;;;;;;;;;;19.43;82.14;99341.88;4992941;28;19922;-41
2023/06/03 07:07:49;;;;;;;;;;;;;;;19.88;83.64;99344.28;4997548;28;19928;-44
2023/06/03 07:10:19;;;;;;;;;;;;;;;20.30;81.39;99331.94;4988566;28;20331;-41
2023/06/03 07:12:44;;;;;;;;;;;;;;;20.00;80.07;99346.09;4966452;28;20283;-41
2023/06/03 07:15:09;;;;;;;;;;;;;;;19.18;82.58;99379.13;4995208;28;19928;-41
2023/06/03 07:17:35;;;;;;;;;;;;;;;20.00;80.58;99347.84;4995319;28;19979;-41
2023/06/03 07:20:00;;;;;;;;;;;;;;;21.43;79.88;99330.31;4993312;28;20008;-41
2023/06/03 07:22:27;;;;;;;;;;;;;;;22.82;75.74;99298.06;4992033;28;20024;-42
2023/06/03 07:24:52;;;;;;;;;;;;;;;21.68;79.83;99347.72;4966469;28;19973;-42
2023/06/03 07:27:22;;;;;;;;;;;;;;;19.50;82.44;99378.03;4990270;28;19917;-42
2023/06/03 07:29:47;;;;;;;;;;;;;;;19.65;84.24;99388.34;4997455;28;19963;-42
2023/06/03 07:32:13;;;;;;;;;;;;;;;19.80;79.72;99346.56;4991125;28;20416;-41
2023/06/03 07:34:38;;;;;;;;;;;;;;;19.37;83.80;99394.50;4996259;28;20408;-41
2023/06/03 07:37:06;;;;;;;;;;;;;;;20.91;82.23;99354.91;4989120;28;20322;-41
2023/06/03 07:39:32;;;;;;;;;;;;;;;21.06;77.31;99318.00;4982647;28;19918;-42
2023/06/03 07:41:57;;;;;;;;;;;;;;;21.49;75.81;99322.00;4987321;28;20647;-41
2023/06/03 07:44:34;;;;;;;;;;;;;;;20.62;72.79;99315.88;4982255;28;20373;-42
2023/06/03 07:47:00;;;;;;;;;;;;;;;22.19;71.19;99289.75;4983298;28;19922;-42
2023/06/03 07:49:25;;;;;;;;;;;;;;;22.21;64.84;99271.25;4992788;28;19917;-41
2023/06/03 07:51:51;;;;;;;;;;;;;;;22.53;66.17;99280.19;4987780;28;19928;-42
2023/06/03 07:54:16;;;;;;;;;;;;;;;20.97;69.62;99318.66;4986163;28;20009;-42
2023/06/03 07:56:42;;;;;;;;;;;;;;;22.11;67.80;99282.44;4994571;28;19928;-42
2023/06/03 07:59:13;;;;;;;;;;;;;;;23.12;62.66;99244.94;4989949;28;19918;-42
2023/06/03 08:01:39;;;;;;;;;;;;;;;21.30;64.94;99286.63;4990018;28;19917;-41
2023/06/03 08:04:07;;;;;;;;;;;;;;;22.64;64.65;99258.31;4995907;28;19925;-42
2023/06/03 08:06:36;;;;;;;;;;;;;;;21.36;66.00;99292.38;4988688;28;19948;-42
2023/06/03 08:09:01;;;;;;;;;;;;;;;20.29;65.50;99304.09;4998750;28;19929;-42
2023/06/03 08:11:26;;;;;;;;;;;;;;;23.05;66.64;99270.03;4984265;28;20302;-41
2023/06/03 08:13:53;;;;;;;;;;;;;;;20.73;63.00;99295.00;4984321;28;19922;-42
2023/06/03 08:16:18;;;;;;;;;;;;;;;21.51;66.10;99293.91;4986435;28;20021;-42
2023/06/03 08:18:47;;;;;;;;;;;;;;;22.45;65.26;99272.03;4989813;28;19918;-42
2023/06/03 08:21:13;;;;;;;;;;;;;;;22.84;65.44;99272.53;4990255;28;19972;-42
2023/06/03 08:23:38;;;;;;;;;;;;;;;21.99;65.41;99288.63;4984540;28;20307;-42
2023/06/03 08:26:03;;;;;;;;;;;;;;;22.63;65.81;99290.78;4986367;28;19922;-39
2023/06/03 08:28:29;;;;;;;;;;;;;;;21.74;64.37;99288.78;4988692;28;19940;-39
2023/06/03 08:30:54;;;;;;;;;;;;;;;21.61;61.37;99273.94;4989128;28;19932;-39
2023/06/03 08:33:20;;;;;;;;;;;;;;;21.56;60.88;99276.06;4993613;28;19993;-39
2023/06/03 08:35:45;;;;;;;;;;;;;;;22.90;61.21;99258.09;4997238;28;20566;-39
2023/06/03 08:38:11;;;;;;;;;;;;;;;21.97;60.28;99274.78;4986048;28;20476;-39
2023/06/03 08:40:38;;;;;;;;;;;;;;;22.93;58.24;99252.59;4997653;28;19922;-39
2023/06/03 08:43:03;;;;;;;;;;;;;;;23.69;56.88;99235.06;4983298;28;19922;-39
2023/06/03 08:45:30;;;;;;;;;;;;;;;22.82;59.54;99270.97;4991059;28;20486;-39
2023/06/03 08:48:04;;;;;;;;;;;;;;;24.08;60.04;99255.56;4990691;28;19917;-39
2023/06/03 08:50:30;;;;;;;;;;;;;;;22.12;55.97;99255.28;4983615;28;19925;-39
2023/06/03 08:52:55;;;;;;;;;;;;;;;23.83;56.39;99235.72;4984778;28;19921;-39
2023/06/03 08:55:20;;;;;;;;;;;;;;;23.47;56.59;99243.03;4983514;28;19922;-39
2023/06/03 08:57:55;;;;;;;;;;;;;;;22.54;54.92;99242.47;4994278;28;20334;-39
2023/06/03 09:00:21;;;;;;;;;;;;;;;23.13;59.69;99258.91;4992289;28;20375;-39
2023/06/03 09:02:46;;;;;;;;;;;;;;;23.12;56.69;99254.59;4984710;28;20271;-39
2023/06/03 09:05:12;;;;;;;;;;;;;;;23.04;56.26;99243.91;4983027;28;19928;-39
2023/06/03 09:07:37;;;;;;;;;;;;;;;23.39;54.13;99233.97;4986153;28;19932;-39
2023/06/03 09:10:03;;;;;;;;;;;;;;;23.51;53.49;99234.78;4986989;28;19917;-39
2023/06/03 09:12:28;;;;;;;;;;;;;;;25.50;48.76;99192.28;4986003;28;19967;-39
2023/06/03 09:14:54;;;;;;;;;;;;;;;24.09;49.25;99221.25;4989169;28;19922;-39
2023/06/03 09:17:19;;;;;;;;;;;;;;;24.43;51.01;99224.47;4988917;28;19920;-39
2023/06/03 09:19:44;;;;;;;;;;;;;;;24.25;49.69;99214.69;4986062;28;19917;-39
2023/06/03 09:22:10;;;;;;;;;;;;;;;24.06;47.57;99226.75;4992866;28;19922;-39
2023/06/03 09:24:35;;;;;;;;;;;;;;;24.38;50.52;99231.91;4979869;28;19933;-39
2023/06/03 09:27:00;;;;;;;;;;;;;;;23.71;54.51;99254.16;4979954;28;19921;-39
2023/06/03 09:29:25;;;;;;;;;;;;;;;23.20;53.26;99244.34;4985322;28;20055;-39
2023/06/03 09:31:50;;;;;;;;;;;;;;;25.98;48.69;99185.25;4984208;28;20004;-39
2023/06/03 09:34:16;;;;;;;;;;;;;;;24.65;47.32;99190.19;4985648;28;19967;-39
2023/06/03 09:36:45;;;;;;;;;;;;;;;24.61;47.18;99201.00;4987546;28;19918;-39
2023/06/03 09:39:10;;;;;;;;;;;;;;;25.94;47.47;99205.00;4986572;28;19917;-40
2023/06/03 09:41:36;;;;;;;;;;;;;;;24.78;46.99;99207.41;4995718;28;20350;-39
2023/06/03 09:44:02;;;;;;;;;;;;;;;24.46;50.32;99231.25;4984332;28;19918;-39
2023/06/03 09:46:30;;;;;;;;;;;;;;;25.03;49.10;99221.06;4984730;28;19984;-39
2023/06/03 09:49:11;;;;;;;;;;;;;;;24.57;49.28;99228.56;4988742;28;20523;-39
2023/06/03 09:51:43;;;;;;;;;;;;;;;24.54;50.16;99236.72;4987111;28;20074;-39
2023/06/03 09:54:08;;;;;;;;;;;;;;;24.79;50.84;99227.53;4977407;28;19918;-40
2023/06/03 09:56:34;;;;;;;;;;;;;;;25.77;47.69;99202.09;4977756;28;19921;-40
2023/06/03 09:59:29;;;;;;;;;;;;;;;24.16;49.98;99235.53;4980218;28;20004;-40
2023/06/03 10:01:55;;;;;;;;;;;;;;;24.97;50.92;99229.50;4984719;28;19984;-39
2023/06/03 10:04:23;;;;;;;;;;;;;;;25.09;48.38;99211.75;4985923;28;19973;-40
2023/06/03 10:07:07;;;;;;;;;;;;;;;27.56;50.01;99219.50;4990690;28;19926;-40
2023/06/03 10:09:32;;;;;;;;;;;;;;;25.90;48.25;99224.75;4984503;28;19956;-39
2023/06/03 10:11:58;;;;;;;;;;;;;;;25.67;48.07;99209.19;4987172;28;19922;-39
2023/06/03 10:14:25;;;;;;;;;;;;;;;23.64;47.49;99221.47;4981201;28;19925;-39
2023/06/03 10:17:06;;;;;;;;;;;;;;;25.01;47.19;99208.00;4981333;28;19925;-40
2023/06/03 10:19:34;;;;;;;;;;;;;;;24.36;45.15;99190.91;4977181;28;19952;-39
2023/06/03 10:22:00;;;;;;;;;;;;;;;26.61;43.91;99188.09;4978849;28;19925;-39
2023/06/03 10:24:27;;;;;;;;;;;;;;;26.48;45.03;99199.00;4981174;28;20279;-39
2023/06/03 10:26:53;;;;;;;;;;;;;;;27.26;44.49;99168.66;4980090;28;19925;-40
2023/06/03 10:29:18;;;;;;;;;;;;;;;24.70;47.02;99209.91;4990319;28;19918;-39
2023/06/03 10:31:43;;;;;;;;;;;;;;;24.82;45.96;99205.34;4982036;28;19918;-40
2023/06/03 10:34:08;;;;;;;;;;;;;;;24.75;46.53;99209.50;4977769;28;19921;-39
2023/06/03 10:36:34;;;;;;;;;;;;;;;26.90;45.21;99184.47;4983570;28;19996;-39
2023/06/03 10:39:00;;;;;;;;;;;;;;;27.73;40.13;99139.25;4964089;28;19921;-39
2023/06/03 10:41:28;;;;;;;;;;;;;;;26.89;42.55;99177.50;4982006;28;19922;-39
2023/06/03 10:43:53;;;;;;;;;;;;;;;27.00;43.25;99187.84;4983058;28;19941;-39
2023/06/03 10:46:19;;;;;;;;;;;;;;;24.82;42.78;99189.56;4979103;28;20630;-39
2023/06/03 10:48:44;;;;;;;;;;;;;;;26.32;43.54;99182.09;4987492;28;19921;-40
2023/06/03 10:51:23;;;;;;;;;;;;;;;25.50;43.49;99191.41;4979774;28;21144;-39
2023/06/03 10:54:07;;;;;;;;;;;;;;;27.22;41.62;99170.75;4980339;28;19921;-39
2023/06/03 10:56:35;;;;;;;;;;;;;;;26.95;41.15;99168.97;4981752;28;19922;-39
2023/06/03 10:59:02;;;;;;;;;;;;;;;27.16;43.02;99210.16;4981211;28;20116;-40
2023/06/03 11:01:46;;;;;;;;;;;;;;;26.92;38.92;99158.72;4967850;28;19985;-40
2023/06/03 11:04:14;;;;;;;;;;;;;;;26.20;38.14;99161.16;4981296;28;19921;-39
2023/06/03 11:06:40;;;;;;;;;;;;;;;25.89;45.02;99213.34;4988253;28;19924;-39
2023/06/03 11:09:06;;;;;;;;;;;;;;;26.96;41.42;99175.09;4987710;28;19918;-40
2023/06/03 11:11:52;;;;;;;;;;;;;;;26.63;43.91;99207.28;4993385;28;20631;-39
2023/06/03 11:14:24;;;;;;;;;;;;;;;27.61;40.19;99151.06;4988298;28;19956;-40
2023/06/03 11:16:58;;;;;;;;;;;;;;;25.84;38.92;99168.91;4985283;28;20660;-39
2023/06/03 11:19:33;;;;;;;;;;;;;;;26.32;39.49;99172.38;4991768;28;19988;-39
2023/06/03 11:21:58;;;;;;;;;;;;;;;24.40;39.22;99187.03;4991271;28;19975;-39
2023/06/03 11:24:39;;;;;;;;;;;;;;;25.87;39.47;99178.38;4993158;28;19918;-39
2023/06/03 11:27:10;;;;;;;;;;;;;;;25.94;41.24;99184.72;4992317;28;20742;-39
2023/06/03 11:29:51;;;;;;;;;;;;;;;24.91;37.78;99156.28;4989861;28;20322;-40
2023/06/03 11:32:19;;;;;;;;;;;;;;;26.86;41.90;99183.91;4999608;28;20004;-39
2023/06/03 11:34:45;;;;;;;;;;;;;;;29.23;38.88;99156.41;4991007;28;19921;-39
2023/06/03 11:37:19;;;;;;;;;;;;;;;28.46;36.84;99145.91;4992567;28;19964;-39
2023/06/03 11:40:00;;;;;;;;;;;;;;;27.56;38.57;99150.72;4994286;28;19945;-40
2023/06/03 11:42:25;;;;;;;;;;;;;;;30.14;37.86;99165.94;4988949;28;19921;-39
2023/06/03 11:44:50;;;;;;;;;;;;;;;25.61;37.62;99178.09;4991372;28;19932;-40
2023/06/03 11:47:15;;;;;;;;;;;;;;;27.75;39.45;99166.38;4991313;28;19972;-40
2023/06/03 11:49:41;;;;;;;;;;;;;;;27.32;37.19;99162.75;4990165;28;19961;-40
2023/06/03 11:52:07;;;;;;;;;;;;;;;29.21;37.90;99147.78;4985804;28;19978;-39
2023/06/03 11:54:33;;;;;;;;;;;;;;;27.16;37.52;99157.28;4994729;28;20282;-39
2023/06/03 11:56:59;;;;;;;;;;;;;;;26.61;38.65;99174.06;4995635;28;19913;-39
2023/06/03 11:59:34;;;;;;;;;;;;;;;26.22;39.65;99171.56;4983241;28;19925;-39
2023/06/03 12:01:59;;;;;;;;;;;;;;;26.20;36.63;99132.13;4983400;28;19925;-39
2023/06/03 12:04:24;;;;;;;;;;;;;;;27.01;42.44;99191.34;4985261;28;19928;-40
2023/06/03 12:06:50;;;;;;;;;;;;;;;28.99;39.40;99150.06;4989057;28;19932;-39
2023/06/03 12:09:16;;;;;;;;;;;;;;;27.06;40.95;99174.06;4989478;28;20767;-39
2023/06/03 12:11:42;;;;;;;;;;;;;;;28.19;40.38;99166.34;4983743;28;19964;-40
2023/06/03 12:14:08;;;;;;;;;;;;;;;27.21;38.61;99165.63;4995758;28;19925;-39
2023/06/03 12:16:34;;;;;;;;;;;;;;;28.26;40.49;99170.03;4987595;28;19940;-40
2023/06/03 12:19:00;;;;;;;;;;;;;;;28.99;35.77;99131.50;4986460;28;20709;-40
2023/06/03 12:21:26;;;;;;;;;;;;;;;28.89;36.88;99144.91;4993016;28;19930;-40
2023/06/03 12:23:51;;;;;;;;;;;;;;;28.14;38.16;99165.97;4988304;28;20399;-40
2023/06/03 12:26:16;;;;;;;;;;;;;;;27.58;35.47;99119.66;4994192;28;19917;-40
2023/06/03 12:28:41;;;;;;;;;;;;;;;29.42;35.70;99140.16;4992040;28;20383;-40
2023/06/03 12:31:14;;;;;;;;;;;;;;;27.87;35.30;99117.53;4988131;28;19921;-40
2023/06/03 12:33:42;;;;;;;;;;;;;;;28.08;35.60;99150.75;4988728;28;19934;-39
2023/06/03 12:36:08;;;;;;;;;;;;;;;28.49;34.74;99127.09;4996633;28;20012;-39
2023/06/03 12:38:33;;;;;;;;;;;;;;;27.44;35.59;99121.03;4986319;28;20057;-39
2023/06/03 12:41:11;;;;;;;;;;;;;;;28.57;33.86;99108.56;4996580;28;19921;-39
2023/06/03 12:43:36;;;;;;;;;;;;;;;29.11;33.04;99097.56;4987443;28;20008;-40
2023/06/03 12:46:17;;;;;;;;;;;;;;;29.28;38.44;99149.59;4997003;28;19941;-39